AWG-1

EHMA · Friesland, Niederlande

METAR-Geschichte EHMA · AWG-1

Unten siehst du die METARs der letzten paar Tage. Wähle ein Jahr, um ältere METARs ab dem Jahr 2007 zu durchsuchen.

9. Dezember 2022

Uhrzeit Code Wetter Temp. Sichtweite Wolkendecke Wind METAR/SPECI
03:55
M
1 °C 7 km - Var Var 18 kt METAR EHMA 090255Z AUTO VRB18KT 7000 NCD 01/M00 Q1005
03:25
V
1 °C 9 km - Var Var 18 kt METAR EHMA 090225Z AUTO VRB18KT 9000 NCD 01/00 Q1005
02:55
V
2 °C 8 km - Var Var 15 kt METAR EHMA 090155Z AUTO VRB15KT 8000 FEW000 02/01 Q1005
02:25
I
1 °C 2,5 km - Var Var 12 kt METAR EHMA 090125Z AUTO VRB12KT 2500 BR FEW000 01/01 Q1005 REDZ
01:55
M
2 °C 5 km - 210° 210° 10 kt METAR EHMA 090055Z AUTO 21010KT 5000 BR FEW000 02/01 Q1006
01:25
I
2 °C 2,5 km - 200° 200° 11 kt METAR EHMA 090025Z AUTO 20011KT 2500 BR BKN000/// 02/01 Q1006 REDZ
00:55
L
1 °C 600 m - 200° 200° 11 kt METAR EHMA 082355Z AUTO 20011KT 0600 -UP SCT000 01/01 Q1006
00:25
M
2 °C 6 km - 210° 210° 10 kt METAR EHMA 082325Z AUTO 21010KT 6000 FEW001 02/01 Q1006

8. Dezember 2022

Uhrzeit Code Wetter Temp. Sichtweite Wolkendecke Wind METAR/SPECI
23:55
V
2 °C 10 km+ - 210° 210° 9 kt METAR EHMA 082255Z AUTO 21009KT 9999 FEW001 02/02 Q1006
23:25
V
2 °C 8 km - 100° 100° 9 kt METAR EHMA 082225Z AUTO 10009KT 8000 FEW001 02/01 Q1006
22:55
V
4 °C 10 km+ - 230° 230° 7 kt METAR EHMA 082155Z AUTO 23007KT 9999 NCD 04/01 Q1006
22:25
V
4 °C 10 km+ - 230° 230° 6 kt METAR EHMA 082125Z AUTO 23006KT 9999 NCD 04/01 Q1006
21:55
V
4 °C 10 km+ - 240° 240° 8 kt METAR EHMA 082055Z AUTO 24008KT 9999 NCD 04/01 Q1006
21:25
V
4 °C 10 km+ - 230° 230° 7 kt METAR EHMA 082025Z AUTO 23007KT 9999 NCD 04/00 Q1006
20:55
V
4 °C 10 km+ - 260° 260° 7 kt METAR EHMA 081955Z AUTO 26007KT 9999 NCD 04/01 Q1006
20:25
V
3 °C 10 km+ - 250° 250° 6 kt METAR EHMA 081925Z AUTO 25006KT 9999 NCD 03/01 Q1006
19:55
V
3 °C 10 km+ - 230° 230° 6 kt METAR EHMA 081855Z AUTO 23006KT 9999 NCD 03/01 Q1006
19:25
V
3 °C 10 km+ - 220° 220° 6 kt METAR EHMA 081825Z AUTO 22006KT 9999 NCD 03/01 Q1006
18:55
V
3 °C 9 km - 210° 210° 8 kt METAR EHMA 081755Z AUTO 21008KT 9000 NCD 03/01 Q1006
18:25
V
3 °C 10 km+ - 200° 200° 6 kt METAR EHMA 081725Z AUTO 20006KT 9999 NCD 03/01 Q1006
17:55
V
3 °C 10 km+ - 210° 210° 6 kt METAR EHMA 081655Z AUTO 21006KT 9999 NCD 03/01 Q1006
17:25
V
3 °C 10 km+ - 210° 210° 6 kt METAR EHMA 081625Z AUTO 21006KT 120V290 9999 NCD 03/01 Q1006
16:55
V
3 °C 10 km+ - 210° 210° 6 kt METAR EHMA 081555Z AUTO 21006KT 140V280 9999 FEW035 03/01 Q1006
16:25
V
3 °C 10 km+ - Var Var 5 kt METAR EHMA 081525Z AUTO VRB05KT 9999 FEW035 03/01 Q1006
15:55
V
3 °C 10 km+ - Var Var 7 kt METAR EHMA 081455Z AUTO VRB07KT 9999 FEW016 SCT039 03/01 Q1005
15:25
M
2 °C 10 km+ 2.400 ft Var Var 9 kt METAR EHMA 081425Z AUTO VRB09KT 9999 FEW006 SCT013 BKN024 02/01 Q1005 RESN
14:55
I
2 °C 4,9 km 1.600 ft 200° 200° 10 kt METAR EHMA 081355Z AUTO 20010KT 4900 -SHRASN FEW006 SCT010 BKN016 02/01 Q1005 RERA REDZ
14:25
V
4 °C 10 km+ - 130° 130° 6 kt METAR EHMA 081325Z AUTO 13006KT 9999 FEW017 SCT025 04/01 Q1005
13:55
V
3 °C 10 km+ - Var Var 5 kt METAR EHMA 081255Z AUTO VRB05KT 9999 FEW036 03/01 Q1005
13:25
V
3 °C 10 km+ - 040° 040° 6 kt METAR EHMA 081225Z AUTO 04006KT 9999 FEW020 03/01 Q1006
12:55
V
4 °C 10 km+ 4.500 ft 010° 010° 10 kt METAR EHMA 081155Z AUTO 01010KT 9999 FEW014 SCT033 BKN045 04/01 Q1005
12:25
V
4 °C 10 km+ 3.300 ft 310° 310° 7 kt METAR EHMA 081125Z AUTO 31007KT 270V330 9999 FEW021 SCT027 BKN033 04/00 Q1006
11:55
V
4 °C 10 km+ 4.000 ft 280° 280° 11 kt METAR EHMA 081055Z AUTO 28011KT 9999 -RADZ FEW017 SCT028 BKN040 04/01 Q1006
11:25
V
5 °C 10 km+ 4.300 ft 280° 280° 7 kt METAR EHMA 081025Z AUTO 28007KT 190V330 9999 -UP FEW017 SCT036 BKN043 05/M00 Q1005
10:55
V
4 °C 10 km+ 4.400 ft Var Var 2 kt METAR EHMA 080955Z AUTO VRB02KT 9999 FEW009 FEW016CB SCT029 BKN044 04/00 Q1005
10:25
V
4 °C 9 km 3.900 ft 010° 010° 4 kt METAR EHMA 080925Z AUTO 01004KT 310V060 9000 -RA FEW009 SCT027 BKN039 04/M00 Q1005
09:55
V
5 °C 10 km+ 4.900 ft 350° 350° 8 kt METAR EHMA 080855Z AUTO 35008KT 9999 FEW025 SCT040 BKN049 05/M01 Q1005
09:25
V
4 °C 10 km+ 4.000 ft 010° 010° 15 kt METAR EHMA 080825Z AUTO 01015KT 9999 FEW015CB SCT031 BKN040 04/01 Q1005
08:55
V
5 °C 10 km+ - 350° 350° 10 kt METAR EHMA 080755Z AUTO 35010KT 9999 FEW022CB 05/M01 Q1005
08:25
V
5 °C 10 km+ - 350° 350° 18 kt METAR EHMA 080725Z AUTO 35018KT 9999 FEW028 SCT041 05/M01 Q1005
07:55
V
5 °C 10 km+ - 310° 310° 18 kt METAR EHMA 080655Z AUTO 31018KT 9999 FEW038 05/M02 Q1005
07:25
V
6 °C 10 km+ - 320° 320° 20 kt METAR EHMA 080625Z AUTO 32020KT 9999 FEW030 SCT036 06/M04 Q1004
06:55
V
6 °C 10 km+ 3.800 ft 330° 330° 21 kt METAR EHMA 080555Z AUTO 33021KT 9999 FEW023 SCT032 BKN038 06/M03 Q1005
06:25
V
6 °C 10 km+ - 320° 320° 22 kt METAR EHMA 080525Z AUTO 32022KT 9999 FEW020 SCT038 06/M01 Q1005
05:55
V
5 °C 10 km+ - 320° 320° 23 kt METAR EHMA 080455Z AUTO 32023KT 9999 FEW014 SCT025 05/M00 Q1005
05:25
V
5 °C 10 km+ 3.300 ft 340° 340° 24 kt METAR EHMA 080425Z AUTO 34024KT 9999 FEW013 FEW015CB SCT023 BKN033 05/01 Q1005
04:55
I
3 °C 3 km 2.300 ft 320° 320° 21 kt METAR EHMA 080355Z AUTO 32021KT 3000 SHRA FEW013 FEW015CB SCT018 BKN023 03/01 Q1005 RESN
04:25
V
5 °C 10 km+ 4.500 ft 320° 320° 15 - 25 kt METAR EHMA 080325Z AUTO 32015G25KT 9999 -RA FEW016 FEW018CB SCT028 BKN045 05/01 Q1005
03:55
V
5 °C 10 km+ 4.900 ft 350° 350° 24 kt METAR EHMA 080255Z AUTO 35024KT 9999 -RA FEW013 FEW015CB SCT038 BKN049 05/01 Q1005
03:25
V
5 °C 10 km+ 4.800 ft 280° 280° 11 kt METAR EHMA 080225Z AUTO 28011KT 9999 DZ FEW015CB SCT042 BKN048 05/02 Q1006
02:55
V
4 °C 10 km+ 3.400 ft 280° 280° 11 kt METAR EHMA 080155Z AUTO 28011KT 9999 FEW014 FEW015CB SCT022 BKN034 04/01 Q1006
02:25
M
5 °C 8 km 2.900 ft 320° 320° 22 kt METAR EHMA 080125Z AUTO 32022KT 8000 -RA FEW011 FEW015CB SCT023 BKN029 05/02 Q1006 RERA REDZ
01:55
V
5 °C 10 km+ - 280° 280° 14 kt METAR EHMA 080055Z AUTO 28014KT 9999 FEW015CB SCT039 05/02 Q1006
01:25
V
5 °C 10 km+ - 280° 280° 13 kt METAR EHMA 080025Z AUTO 28013KT 9999 FEW015CB SCT034 05/02 Q1007
00:55
V
6 °C 10 km+ - 290° 290° 21 kt METAR EHMA 072355Z AUTO 29021KT 9999 -RA FEW017CB 06/01 Q1006
00:25
V
5 °C 10 km+ - 280° 280° 17 kt METAR EHMA 072325Z AUTO 28017KT 9999 FEW014 FEW015CB SCT033 05/01 Q1007

7. Dezember 2022

Uhrzeit Code Wetter Temp. Sichtweite Wolkendecke Wind METAR/SPECI
23:55
V
5 °C 8 km 3.300 ft 300° 300° 19 kt METAR EHMA 072255Z AUTO 30019KT 8000 -RA FEW014 FEW015CB SCT022 BKN033 05/02 Q1007
23:25
V
6 °C 10 km+ - 290° 290° 22 kt METAR EHMA 072225Z AUTO 29022KT 9999 FEW023CB SCT038 06/00 Q1007
22:55
V
6 °C 10 km+ 4.400 ft 290° 290° 21 kt METAR EHMA 072155Z AUTO 29021KT 9999 FEW023 SCT028 BKN044 06/00 Q1008
22:25
V
6 °C 10 km+ - 290° 290° 18 kt METAR EHMA 072125Z AUTO 29018KT 9999 FEW025 SCT041 06/00 Q1008
21:55
V
6 °C 10 km+ - 300° 300° 20 kt METAR EHMA 072055Z AUTO 30020KT 9999 FEW020 06/01 Q1008
21:25
V
5 °C 10 km+ 4.000 ft 320° 320° 20 kt METAR EHMA 072025Z AUTO 32020KT 9999 FEW019 SCT026 BKN040 05/02 Q1009 REDZ
20:55
V
6 °C 10 km+ - 290° 290° 17 kt METAR EHMA 071955Z AUTO 29017KT 260V340 9999 FEW020CB SCT040 06/01 Q1009
20:25
V
6 °C 10 km+ - 320° 320° 15 kt METAR EHMA 071925Z AUTO 32015KT 260V340 9999 FEW017 FEW019CB SCT035 06/01 Q1010
19:55
V
5 °C 10 km+ 4.900 ft 300° 300° 12 kt METAR EHMA 071855Z AUTO 30012KT 9999 FEW017 SCT034 BKN049 05/02 Q1010
19:25
V
4 °C 10 km+ 4.600 ft 320° 320° 19 kt METAR EHMA 071825Z AUTO 32019KT 9999 FEW015CB SCT033 BKN046 04/00 Q1010 REDZ
18:55
V
4 °C 10 km+ 4.200 ft 340° 340° 18 kt METAR EHMA 071755Z AUTO 34018KT 9999 FEW015CB SCT035 BKN042 04/01 Q1010
18:25
V
5 °C 10 km+ 3.300 ft 310° 310° 16 kt METAR EHMA 071725Z AUTO 31016KT 9999 FEW015 SCT029 BKN033 05/01 Q1011
17:55
V
5 °C 10 km+ 3.000 ft 310° 310° 15 kt METAR EHMA 071655Z AUTO 31015KT 9999 FEW011 FEW015CB SCT018 BKN030 05/01 Q1011
17:25
M
5 °C 5 km 3.000 ft 330° 330° 18 kt METAR EHMA 071625Z AUTO 33018KT 5000 -SHRA FEW011 FEW015CB SCT022 BKN030 05/02 Q1011 RERA
16:55
V
5 °C 10 km+ 3.100 ft 350° 350° 10 kt METAR EHMA 071555Z AUTO 35010KT 9999 FEW015CB BKN031 BKN042 05/01 Q1012 REDZ
16:25
V
4 °C 10 km+ 3.800 ft 350° 350° 21 - 32 kt METAR EHMA 071525Z AUTO 35021G32KT 9999 FEW015 SCT024 BKN038 04/01 Q1012
15:55
V
6 °C 10 km+ - 330° 330° 14 kt METAR EHMA 071455Z AUTO 33014KT 9999 FEW027 06/01 Q1012
15:25
V
6 °C 10 km+ - 310° 310° 13 kt METAR EHMA 071425Z AUTO 31013KT 9999 FEW017 SCT025 06/01 Q1012
14:55
V
5 °C 9 km - 340° 340° 26 kt METAR EHMA 071355Z AUTO 34026KT 9000 FEW017 SCT027 05/01 Q1012
14:25
V
6 °C 10 km+ - 330° 330° 13 kt METAR EHMA 071325Z AUTO 33013KT 9999 FEW015 SCT028 06/01 Q1012
13:55
V
5 °C 10 km+ 3.300 ft 350° 350° 18 kt METAR EHMA 071255Z AUTO 35018KT 9999 FEW015 SCT028 BKN033 05/00 Q1013
13:25
V
7 °C 10 km+ - 300° 300° 17 kt METAR EHMA 071225Z AUTO 30017KT 9999 FEW030 SCT040 07/01 Q1013
12:55
V
6 °C 10 km+ - 310° 310° 18 kt METAR EHMA 071155Z AUTO 31018KT 9999 FEW033 06/M00 Q1013
12:25
V
7 °C 10 km+ - 340° 340° 18 kt METAR EHMA 071125Z AUTO 34018KT 9999 FEW037 07/00 Q1013
11:55
V
6 °C 10 km+ - 330° 330° 18 kt METAR EHMA 071055Z AUTO 33018KT 9999 FEW047 06/M00 Q1014
11:25
V
7 °C 10 km+ - 330° 330° 18 kt METAR EHMA 071025Z AUTO 33018KT 9999 FEW020 SCT039 07/01 Q1014
10:55
V
6 °C 10 km+ - 310° 310° 20 - 30 kt METAR EHMA 070955Z AUTO 31020G30KT 9999 -UP FEW020 SCT042 06/01 Q1014
10:25
V
6 °C 10 km+ - 300° 300° 25 kt METAR EHMA 070925Z AUTO 30025KT 9999 FEW024 06/01 Q1014
09:55
V
6 °C 10 km+ - 340° 340° 19 kt METAR EHMA 070855Z AUTO 34019KT 9999 FEW024 SCT030 06/00 Q1014
09:25
V
6 °C 10 km+ - 350° 350° 20 kt METAR EHMA 070825Z AUTO 35020KT 9999 FEW019CB SCT039 06/01 Q1014
08:55
V
7 °C 10 km+ - 330° 330° 18 kt METAR EHMA 070755Z AUTO 33018KT 9999 FEW016 SCT036 07/01 Q1014
08:25
V
6 °C 10 km+ - 310° 310° 33 kt METAR EHMA 070725Z AUTO 31033KT 9999 FEW016 SCT036 06/01 Q1013
07:55
V
6 °C 10 km+ - 340° 340° 21 kt METAR EHMA 070655Z AUTO 34021KT 9999 FEW020 06/01 Q1014
07:25
V
6 °C 10 km+ 3.800 ft 350° 350° 28 kt METAR EHMA 070625Z AUTO 35028KT 9999 FEW020 SCT032 BKN038 06/02 Q1014
06:55
V
6 °C 10 km+ 4.300 ft 340° 340° 19 kt METAR EHMA 070555Z AUTO 34019KT 9999 FEW018 SCT036 BKN043 06/02 Q1014
06:25
V
7 °C 10 km+ - 340° 340° 17 kt METAR EHMA 070525Z AUTO 34017KT 9999 FEW017CB SCT034 07/02 Q1014
05:55
V
6 °C 10 km+ - 340° 340° 27 kt METAR EHMA 070455Z AUTO 34027KT 9999 -RA FEW019 06/01 Q1014
05:25
V
7 °C 10 km+ - 340° 340° 27 kt METAR EHMA 070425Z AUTO 34027KT 9999 FEW027 07/02 Q1014
04:55
V
7 °C 10 km+ - 320° 320° 25 kt METAR EHMA 070355Z AUTO 32025KT 9999 FEW027 SCT044 07/02 Q1014
04:25
V
6 °C 10 km+ - 330° 330° 25 - 36 kt METAR EHMA 070325Z AUTO 33025G36KT 9999 -RA FEW024 SCT038 06/01 Q1014
03:55
V
7 °C 10 km+ - 340° 340° 26 kt METAR EHMA 070255Z AUTO 34026KT 9999 FEW024 SCT036 07/02 Q1014
03:25
V
7 °C 10 km+ - 330° 330° 28 kt METAR EHMA 070225Z AUTO 33028KT 9999 -UP FEW020CB SCT034 07/02 Q1014
02:55
V
7 °C 10 km+ 3.800 ft 350° 350° 26 kt METAR EHMA 070155Z AUTO 35026KT 9999 FEW014 FEW015CB SCT026 BKN038 07/03 Q1015
02:25
V
6 °C 10 km+ 4.200 ft 350° 350° 19 - 31 kt METAR EHMA 070125Z AUTO 35019G31KT 9999 -UP FEW014 SCT033 BKN042 06/03 Q1014
01:55
V
7 °C 10 km+ - 320° 320° 20 kt METAR EHMA 070055Z AUTO 32020KT 9999 FEW016 07/00 Q1015 REDZ
01:25
V
8 °C 10 km+ - 330° 330° 25 - 35 kt METAR EHMA 070025Z AUTO 33025G35KT 9999 FEW019/// SCT027/// 08/02 Q1015
00:55
V
7 °C 10 km+ - 350° 350° 17 kt METAR EHMA 062355Z AUTO 35017KT 9999 FEW017CB SCT033 07/03 Q1015
00:25
V
7 °C 10 km+ - 340° 340° 18 kt METAR EHMA 062325Z AUTO 34018KT 9999 FEW021CB SCT032 07/02 Q1015

6. Dezember 2022

Uhrzeit Code Wetter Temp. Sichtweite Wolkendecke Wind METAR/SPECI
23:55
V
7 °C 10 km+ - 310° 310° 21 kt METAR EHMA 062255Z AUTO 31021KT 9999 FEW024 07/03 Q1015
23:25
V
8 °C 10 km+ - 340° 340° 24 kt METAR EHMA 062225Z AUTO 34024KT 9999 FEW029 SCT035 08/02 Q1015
22:55
V
7 °C 10 km+ 4.400 ft 340° 340° 16 kt METAR EHMA 062155Z AUTO 34016KT 9999 FEW028 SCT035 BKN044 07/03 Q1015
22:25
V
8 °C 10 km+ - 330° 330° 23 kt METAR EHMA 062125Z AUTO 33023KT 9999 FEW026 SCT034 08/03 Q1015
21:55
V
8 °C 10 km+ - 340° 340° 20 kt METAR EHMA 062055Z AUTO 34020KT 9999 FEW026 08/02 Q1015
21:25
V
8 °C 10 km+ - 320° 320° 19 kt METAR EHMA 062025Z AUTO 32019KT 9999 FEW024 08/03 Q1015
20:55
V
8 °C 10 km+ - 340° 340° 22 kt METAR EHMA 061955Z AUTO 34022KT 9999 FEW024 08/03 Q1015
20:25
V
8 °C 10 km+ 4.500 ft 330° 330° 19 kt METAR EHMA 061925Z AUTO 33019KT 9999 FEW028 SCT036 BKN045 08/03 Q1016
19:55
V
7 °C 10 km+ 3.400 ft 330° 330° 15 kt METAR EHMA 061855Z AUTO 33015KT 9999 FEW018 BKN034 BKN039 07/04 Q1016
19:25
V
7 °C 10 km+ 3.400 ft 310° 310° 14 kt METAR EHMA 061825Z AUTO 31014KT 9999 FEW015CB SCT023 BKN034 07/04 Q1016
18:55
M
6 °C 10 km+ 1.900 ft 280° 280° 4 kt METAR EHMA 061755Z AUTO 28004KT 9999 FEW000 SCT002 FEW015CB BKN019 06/06 Q1016
18:25
L
6 °C 450 m 200 ft 280° 280° 4 kt METAR EHMA 061725Z AUTO 28004KT 0450 FG FEW000 BKN002 BKN025 06/05 Q1016
17:55
L
6 °C 10 km+ 300 ft 250° 250° 2 kt METAR EHMA 061655Z AUTO 25002KT 9999 SCT002 BKN003 06/06 Q1016
17:25
L
6 °C 10 km+ 400 ft 200° 200° 2 kt METAR EHMA 061625Z AUTO 20002KT 9999 SCT003 BKN004 BKN010 06/05 Q1016
16:55
I
6 °C 4,6 km 1.500 ft 280° 280° 3 kt METAR EHMA 061555Z AUTO 28003KT 250V310 4600 -RA FEW004 SCT011 OVC015 06/05 Q1016 RERA REDZ
16:25
M
6 °C 10 km+ 1.500 ft 200° 200° 5 kt METAR EHMA 061525Z AUTO 20005KT 9999 OVC015 06/06 Q1016
15:55
M
6 °C 10 km+ 1.600 ft Var Var 8 kt METAR EHMA 061455Z AUTO VRB08KT 9999 BKN016 BKN024 BKN028 06/05 Q1016
15:25
M
6 °C 10 km+ 1.900 ft 210° 210° 8 kt METAR EHMA 061425Z AUTO 21008KT 9999 SCT016 BKN019 BKN028 06/05 Q1016
14:55
M
6 °C 10 km+ 1.600 ft 230° 230° 8 kt METAR EHMA 061355Z AUTO 23008KT 9999 BKN016 BKN020 OVC025 06/05 Q1017
14:25
M
6 °C 10 km+ 2.300 ft 230° 230° 7 kt METAR EHMA 061325Z AUTO 23007KT 9999 SCT017 BKN023 OVC026 06/05 Q1017
13:55
M
6 °C 10 km+ 2.400 ft 220° 220° 4 kt METAR EHMA 061255Z AUTO 22004KT 9999 FEW020 BKN024 BKN027 06/05 Q1017
13:25
M
6 °C 10 km+ 2.300 ft 260° 260° 4 kt METAR EHMA 061225Z AUTO 26004KT 220V280 9999 -DZ FEW020 BKN023 OVC027 06/05 Q1017
12:55
M
6 °C 10 km+ 2.300 ft 250° 250° 7 kt METAR EHMA 061155Z AUTO 25007KT 9999 BKN023 BKN027 BKN034 06/05 Q1018
12:25
M
6 °C 10 km+ 2.800 ft 240° 240° 8 kt METAR EHMA 061125Z AUTO 24008KT 9999 FEW025 BKN028 BKN032 06/05 Q1018
11:55
M
6 °C 10 km+ 2.700 ft 230° 230° 6 kt METAR EHMA 061055Z AUTO 23006KT 9999 BKN027 BKN031 06/04 Q1018
11:25
M
6 °C 10 km+ 2.600 ft 220° 220° 6 kt METAR EHMA 061025Z AUTO 22006KT 9999 BKN026 BKN029 BKN035 06/04 Q1018
10:55
V
6 °C 10 km+ - 200° 200° 3 kt METAR EHMA 060955Z AUTO 20003KT 9999 FEW015 SCT026 06/04 Q1018

Wir und Dritte verfolgen dein Internetverhalten auf unserer Website mit Cookies. Wenn du fortfährst, gehen wir davon aus, dass du mit unserer Cookie-Richtlinie einverstanden bist.